createdAt,value
2018-04-08T00:01:17.661Z,66.10
2018-04-08T00:03:46.124Z,66.30
2018-04-08T00:06:14.965Z,66.70
2018-04-08T00:08:44.283Z,66.80
2018-04-08T00:11:11.955Z,66.60
2018-04-08T00:13:39.761Z,66.80
2018-04-08T00:16:07.379Z,66.90
2018-04-08T00:18:35.053Z,67.20
2018-04-08T00:21:03.510Z,67.30
2018-04-08T00:23:31.132Z,67.30
2018-04-08T00:25:59.577Z,67.90
2018-04-08T00:28:27.209Z,67.80
2018-04-08T00:30:55.595Z,68.20
2018-04-08T00:33:24.019Z,68.30
2018-04-08T00:35:51.643Z,68.30
2018-04-08T00:38:20.040Z,69.50
2018-04-08T00:40:48.484Z,69.00
2018-04-08T00:43:16.100Z,68.80
2018-04-08T00:45:45.735Z,69.40
2018-04-08T00:48:15.102Z,69.50
2018-04-08T00:50:42.727Z,69.50
2018-04-08T00:53:11.126Z,70.10
2018-04-08T00:55:38.791Z,70.00
2018-04-08T00:58:06.434Z,70.30
2018-04-08T01:00:34.067Z,70.50
2018-04-08T01:03:01.737Z,70.70
2018-04-08T01:05:29.421Z,71.00
2018-04-08T01:07:57.043Z,71.10
2018-04-08T01:10:25.483Z,71.50
2018-04-08T01:12:53.111Z,71.40
2018-04-08T01:15:21.507Z,72.10
2018-04-08T01:17:49.935Z,72.20
2018-04-08T01:20:17.600Z,72.20
2018-04-08T01:22:45.226Z,72.50
2018-04-08T01:25:12.978Z,72.80
2018-04-08T01:27:40.621Z,73.10
2018-04-08T01:30:08.246Z,73.20
2018-04-08T01:32:35.910Z,73.50
2018-04-08T01:35:03.632Z,74.50
2018-04-08T01:37:31.252Z,74.10
2018-04-08T01:39:58.924Z,74.20
2018-04-08T01:42:26.550Z,74.50
2018-04-08T01:44:54.172Z,74.70
2018-04-08T01:47:21.847Z,75.00
2018-04-08T01:49:49.559Z,75.30
2018-04-08T01:52:17.950Z,75.60
2018-04-08T01:54:46.375Z,75.70
2018-04-08T01:57:15.546Z,76.10
2018-04-08T01:59:44.874Z,76.50
2018-04-08T02:02:12.551Z,76.40
2018-04-08T02:04:40.184Z,76.60
2018-04-08T02:07:08.591Z,76.80
2018-04-08T02:09:37.024Z,77.40
2018-04-08T02:12:04.643Z,77.30
2018-04-08T02:14:33.044Z,77.90
2018-04-08T02:17:01.495Z,78.20
2018-04-08T02:19:29.132Z,78.10
2018-04-08T02:21:56.812Z,78.40
2018-04-08T02:24:24.421Z,78.70
2018-04-08T02:26:51.955Z,79.00
2018-04-08T02:29:19.673Z,79.30
2018-04-08T02:31:47.346Z,79.50
2018-04-08T02:34:15.783Z,80.10
2018-04-08T02:36:45.024Z,80.40
2018-04-08T02:39:12.658Z,80.40
2018-04-08T02:41:40.969Z,80.80
2018-04-08T02:44:08.511Z,80.80
2018-04-08T02:46:36.867Z,81.40
2018-04-08T02:49:04.423Z,81.40
2018-04-08T02:51:31.962Z,81.70
2018-04-08T02:54:00.304Z,82.20
2018-04-08T02:56:27.859Z,82.10
2018-04-08T02:58:55.402Z,82.40
2018-04-08T03:01:22.979Z,82.40
2018-04-08T03:03:50.516Z,82.80
2018-04-08T03:06:18.060Z,83.00
2018-04-08T03:08:45.699Z,83.00
2018-04-08T03:11:13.245Z,83.30
2018-04-08T03:13:41.550Z,83.80
2018-04-08T03:16:09.172Z,83.70
2018-04-08T03:18:36.689Z,84.00
2018-04-08T03:21:04.230Z,84.10
2018-04-08T03:23:31.822Z,84.40
2018-04-08T03:26:00.135Z,84.80
2018-04-08T03:28:27.696Z,84.80
2018-04-08T03:30:55.299Z,84.90
2018-04-08T03:33:22.858Z,85.10
2018-04-08T03:35:50.387Z,85.30
2018-04-08T03:38:18.846Z,85.90
2018-04-08T03:40:46.661Z,85.90
2018-04-08T03:43:15.895Z,86.30
2018-04-08T03:45:43.502Z,86.50
2018-04-08T03:48:11.049Z,86.60
2018-04-08T03:50:38.906Z,86.80
2018-04-08T03:53:06.508Z,87.10
2018-04-08T03:55:34.038Z,87.20
2018-04-08T03:58:02.337Z,87.90
2018-04-08T04:00:30.682Z,88.20
2018-04-08T04:02:58.242Z,88.20
2018-04-08T04:05:25.781Z,88.50
2018-04-08T04:07:53.368Z,88.90
2018-04-08T04:10:20.947Z,89.20
2018-04-08T04:12:48.498Z,89.50
2018-04-08T04:15:16.178Z,89.70
2018-04-08T04:17:43.714Z,90.00
2018-04-08T04:20:23.917Z,90.70
2018-04-08T04:23:03.312Z,90.60
2018-04-08T04:28:28.394Z,91.00
2018-04-08T04:30:56.087Z,91.10
2018-04-08T04:33:23.615Z,91.00
2018-04-08T04:35:51.155Z,90.70
2018-04-08T04:38:18.819Z,90.80
2018-04-08T04:40:46.370Z,90.70
2018-04-08T04:43:13.929Z,90.70
2018-04-08T04:45:41.511Z,90.60
2018-04-08T04:48:09.065Z,90.80
2018-04-08T04:50:37.363Z,90.90
2018-04-08T04:53:05.144Z,90.90
2018-04-08T04:55:32.702Z,90.90
2018-04-08T04:58:00.238Z,91.00
2018-04-08T05:00:27.971Z,90.90
2018-04-08T05:02:55.497Z,90.70
2018-04-08T05:05:23.838Z,90.60
2018-04-08T05:07:52.865Z,90.70
2018-04-08T05:10:20.405Z,90.70
2018-04-08T05:12:48.026Z,90.60
2018-04-08T05:15:15.607Z,90.60
2018-04-08T05:17:43.152Z,90.60
2018-04-08T05:20:12.194Z,90.40
2018-04-08T05:22:40.534Z,90.00
2018-04-08T05:25:08.105Z,90.00
2018-04-08T05:27:35.655Z,89.50
2018-04-08T05:30:03.436Z,87.60
2018-04-08T05:32:31.027Z,85.10
2018-04-08T05:34:58.674Z,83.00
2018-04-08T05:37:26.454Z,81.20
2018-04-08T05:39:54.028Z,79.70
2018-04-08T05:42:22.898Z,74.30
2018-04-08T05:44:52.334Z,72.20
2018-04-08T05:47:19.884Z,72.20
2018-04-08T05:49:48.470Z,69.50
2018-04-08T05:52:16.811Z,67.30
2018-04-08T05:54:44.365Z,67.20
2018-04-08T05:57:11.897Z,66.70
2018-04-08T05:59:40.262Z,64.90
2018-04-08T06:02:07.847Z,64.90
2018-04-08T06:04:35.483Z,65.70
2018-04-08T06:07:03.069Z,63.00
2018-04-08T06:09:30.633Z,61.90
2018-04-08T06:11:58.194Z,61.90
2018-04-08T06:14:25.765Z,61.20
2018-04-08T06:16:53.289Z,59.80
2018-04-08T06:19:20.818Z,59.90
2018-04-08T06:21:48.405Z,58.20
2018-04-08T06:24:15.939Z,57.20
2018-04-08T06:26:43.474Z,57.20
2018-04-08T06:29:11.950Z,57.00
2018-04-08T06:31:40.995Z,56.70
2018-04-08T06:34:08.526Z,56.70
2018-04-08T06:36:36.101Z,56.40
2018-04-08T06:39:05.189Z,56.40
2018-04-08T06:41:32.786Z,55.60
2018-04-08T06:44:00.370Z,55.70
2018-04-08T06:46:28.685Z,56.20
2018-04-08T06:48:56.215Z,56.20
2018-04-08T06:51:24.579Z,56.50
2018-04-08T06:53:52.486Z,56.50
2018-04-08T06:56:20.022Z,56.10
2018-04-08T06:58:47.877Z,56.30
2018-04-08T07:01:15.419Z,57.70
2018-04-08T07:03:43.734Z,57.60
2018-04-08T07:06:11.335Z,57.50
2018-04-08T07:08:38.891Z,58.40
2018-04-08T07:11:06.434Z,58.80
2018-04-08T07:13:34.026Z,59.30
2018-04-08T07:16:01.581Z,60.00
2018-04-08T07:18:29.195Z,60.60
2018-04-08T07:20:57.733Z,60.90
2018-04-08T07:23:26.034Z,60.70
2018-04-08T07:25:53.571Z,60.80
2018-04-08T07:28:21.153Z,60.90
2018-04-08T07:30:48.685Z,61.10
2018-04-08T07:33:16.266Z,61.50
2018-04-08T07:35:44.062Z,60.90
2018-04-08T07:38:11.622Z,59.90
2018-04-08T07:40:39.154Z,60.20
2018-04-08T07:43:06.737Z,59.50
2018-04-08T07:45:34.278Z,59.00
2018-04-08T07:48:01.893Z,58.70
2018-04-08T07:50:29.467Z,58.40
2018-04-08T07:52:57.003Z,58.10
2018-04-08T07:55:24.586Z,58.70
2018-04-08T07:57:53.625Z,59.20
2018-04-08T08:00:21.186Z,59.10
2018-04-08T08:02:48.770Z,59.30
2018-04-08T08:05:16.502Z,58.70
2018-04-08T08:07:44.039Z,59.40
2018-04-08T08:10:11.574Z,59.20
2018-04-08T08:12:39.251Z,58.40
2018-04-08T08:15:06.899Z,58.20
2018-04-08T08:17:34.454Z,57.00
2018-04-08T08:20:02.034Z,56.40
2018-04-08T08:22:29.572Z,56.20
2018-04-08T08:24:57.121Z,56.60
2018-04-08T08:27:24.721Z,56.20
2018-04-08T08:29:52.843Z,57.20
2018-04-08T08:32:21.381Z,57.00
2018-04-08T08:34:49.911Z,56.50
2018-04-08T08:37:18.211Z,55.80
2018-04-08T08:39:45.767Z,55.80
2018-04-08T08:42:14.106Z,56.00
2018-04-08T08:44:41.734Z,56.00
2018-04-08T08:47:09.630Z,55.70
2018-04-08T08:49:37.197Z,55.90
2018-04-08T08:52:04.750Z,56.60
2018-04-08T08:54:32.289Z,56.90
2018-04-08T08:56:59.880Z,55.80
2018-04-08T08:59:28.182Z,56.20
2018-04-08T09:01:55.760Z,56.20
2018-04-08T09:04:24.624Z,56.60
2018-04-08T09:06:53.862Z,55.00
2018-04-08T09:09:23.113Z,55.30
2018-04-08T09:11:50.701Z,55.30
2018-04-08T09:14:18.386Z,55.40
2018-04-08T09:16:46.879Z,55.50
2018-04-08T09:22:34.675Z,55.70
2018-04-08T09:25:03.120Z,56.40
2018-04-08T09:27:30.653Z,56.40
2018-04-08T09:29:58.950Z,56.10
2018-04-08T09:32:26.536Z,56.10
2018-04-08T09:34:54.215Z,56.50
2018-04-08T09:37:21.880Z,55.30
2018-04-08T09:39:49.646Z,55.90
2018-04-08T09:42:17.241Z,55.60
2018-04-08T09:44:44.796Z,54.60
2018-04-08T09:47:13.246Z,54.00
2018-04-08T09:49:41.559Z,54.60
2018-04-08T09:52:10.434Z,55.10
2018-04-08T09:54:38.054Z,54.60
2018-04-08T09:57:05.724Z,54.20
2018-04-08T09:59:33.258Z,55.50
2018-04-08T10:05:01.366Z,54.20
2018-04-08T10:07:29.009Z,54.20
2018-04-08T10:09:56.665Z,54.60
2018-04-08T10:12:24.202Z,52.40
2018-04-08T10:14:51.788Z,52.30
2018-04-08T10:17:20.449Z,51.70
2018-04-08T10:19:48.106Z,51.70
2018-04-08T10:22:15.722Z,51.00
2018-04-08T10:24:43.275Z,50.10
2018-04-08T10:27:10.816Z,50.50
2018-04-08T10:29:38.416Z,50.50
2018-04-08T10:32:05.962Z,49.50
2018-04-08T10:34:33.765Z,48.60
2018-04-08T10:37:01.344Z,49.60
2018-04-08T10:39:28.894Z,49.10
2018-04-08T10:41:56.450Z,48.90
2018-04-08T10:44:25.324Z,46.80
2018-04-08T10:46:52.873Z,46.70
2018-04-08T10:49:21.390Z,45.80
2018-04-08T10:51:49.030Z,45.80
2018-04-08T10:54:16.691Z,46.00
2018-04-08T10:56:44.310Z,45.00
2018-04-08T10:59:11.983Z,45.40
2018-04-08T11:01:39.521Z,46.00
2018-04-08T11:04:07.055Z,44.30
2018-04-08T11:06:34.900Z,44.40
2018-04-08T11:09:02.442Z,43.50
2018-04-08T11:11:30.010Z,43.20
2018-04-08T11:13:58.362Z,43.90
2018-04-08T11:16:25.927Z,43.60
2018-04-08T11:18:54.197Z,44.40
2018-04-08T11:21:21.774Z,44.30
2018-04-08T11:23:49.306Z,44.30
2018-04-08T11:26:17.608Z,43.70
2018-04-08T11:28:45.948Z,42.90
2018-04-08T11:31:13.508Z,42.90
2018-04-08T11:33:41.048Z,42.70
2018-04-08T11:36:08.754Z,42.40
2018-04-08T11:38:36.332Z,43.40
2018-04-08T11:41:03.905Z,44.00
2018-04-08T11:43:32.270Z,44.20
2018-04-08T11:45:59.839Z,44.20
2018-04-08T11:48:27.385Z,43.90
2018-04-08T11:50:55.742Z,43.20
2018-04-08T11:53:23.286Z,43.00
2018-04-08T11:55:50.851Z,42.80
2018-04-08T11:58:18.430Z,43.90
2018-04-08T12:00:46.018Z,43.50
2018-04-08T12:03:13.532Z,43.00
2018-04-08T12:05:41.945Z,43.20
2018-04-08T12:08:09.475Z,43.10
2018-04-08T12:10:37.007Z,42.80
2018-04-08T12:13:04.836Z,42.80
2018-04-08T12:15:33.159Z,43.40
2018-04-08T12:18:00.750Z,43.40
2018-04-08T12:20:28.398Z,43.30
2018-04-08T12:22:56.190Z,43.00
2018-04-08T12:25:24.667Z,42.20
2018-04-08T12:27:52.286Z,41.40
2018-04-08T12:30:19.911Z,42.30
2018-04-08T12:32:47.443Z,41.50
2018-04-08T12:35:15.835Z,41.00
2018-04-08T12:37:44.168Z,41.70
2018-04-08T12:40:11.762Z,41.70
2018-04-08T12:42:39.372Z,41.20
2018-04-08T12:45:06.940Z,41.50
2018-04-08T12:47:34.479Z,41.40
2018-04-08T12:50:02.075Z,40.90
2018-04-08T12:52:30.109Z,41.90
2018-04-08T12:54:57.649Z,41.60
2018-04-08T12:57:26.116Z,40.70
2018-04-08T12:59:53.690Z,40.70
2018-04-08T13:02:21.258Z,40.40
2018-04-08T13:04:48.842Z,41.40
2018-04-08T13:07:16.399Z,40.30
2018-04-08T13:09:44.037Z,41.10
2018-04-08T13:12:11.671Z,41.10
2018-04-08T13:14:39.230Z,40.50
2018-04-08T13:17:07.534Z,41.20
2018-04-08T13:19:35.887Z,41.00
2018-04-08T13:22:03.477Z,41.00
2018-04-08T13:24:31.021Z,41.10
2018-04-08T13:26:58.617Z,39.80
2018-04-08T13:29:26.155Z,40.20
2018-04-08T13:31:53.690Z,39.50
2018-04-08T13:34:21.389Z,39.30
2018-04-08T13:36:48.917Z,39.70
2018-04-08T13:39:17.214Z,38.90
2018-04-08T13:41:45.557Z,39.40
2018-04-08T13:44:13.102Z,39.40
2018-04-08T13:46:40.674Z,38.80
2018-04-08T13:49:09.125Z,38.90
2018-04-08T13:51:37.445Z,39.20
2018-04-08T13:54:04.977Z,39.10
2018-04-08T13:56:34.243Z,39.00
2018-04-08T13:59:01.813Z,39.00
2018-04-08T14:01:29.383Z,39.10
2018-04-08T14:03:56.963Z,38.80
2018-04-08T14:06:25.577Z,38.90
2018-04-08T14:08:53.103Z,39.00
2018-04-08T14:11:20.838Z,38.90
2018-04-08T14:13:48.370Z,38.70
2018-04-08T14:16:15.923Z,38.50
2018-04-08T14:18:43.565Z,38.60
2018-04-08T14:21:12.006Z,39.00
2018-04-08T14:23:39.542Z,38.90
2018-04-08T14:26:07.976Z,39.30
2018-04-08T14:28:35.740Z,39.20
2018-04-08T14:31:03.284Z,39.20
2018-04-08T14:33:31.623Z,39.00
2018-04-08T14:35:59.337Z,38.90
2018-04-08T14:38:27.663Z,40.00
2018-04-08T14:40:55.535Z,40.00
2018-04-08T14:43:23.070Z,39.90
2018-04-08T14:45:50.651Z,39.90
2018-04-08T14:48:18.991Z,39.90
2018-04-08T14:50:46.538Z,39.80
2018-04-08T14:53:14.078Z,40.00
2018-04-08T14:55:42.610Z,40.10
2018-04-08T14:58:10.147Z,40.10
2018-04-08T15:00:38.678Z,40.80
2018-04-08T15:03:06.297Z,40.80
2018-04-08T15:05:35.339Z,41.10
2018-04-08T15:08:04.670Z,41.00
2018-04-08T15:10:32.253Z,41.40
2018-04-08T15:12:59.794Z,41.30
2018-04-08T15:15:27.370Z,41.30
2018-04-08T15:17:56.336Z,42.10
2018-04-08T15:20:23.862Z,42.10
2018-04-08T15:22:51.406Z,42.20
2018-04-08T15:25:18.995Z,42.50
2018-04-08T15:27:46.534Z,42.50
2018-04-08T15:30:14.837Z,42.90
2018-04-08T15:32:42.430Z,42.90
2018-04-08T15:35:09.966Z,42.50
2018-04-08T15:37:38.298Z,42.80
2018-04-08T15:40:05.878Z,42.80
2018-04-08T15:42:33.442Z,43.20
2018-04-08T15:45:01.019Z,43.10
2018-04-08T15:47:28.771Z,43.20
2018-04-08T15:49:56.306Z,43.50
2018-04-08T15:52:24.606Z,44.80
2018-04-08T15:54:53.029Z,44.70
2018-04-08T15:57:20.558Z,44.70
2018-04-08T15:59:48.871Z,45.70
2018-04-08T16:02:16.572Z,45.30
2018-04-08T16:04:44.145Z,45.80
2018-04-08T16:07:11.795Z,46.10
2018-04-08T16:09:39.395Z,46.00
2018-04-08T16:12:06.981Z,46.20
2018-04-08T16:14:34.513Z,46.20
2018-04-08T16:17:02.188Z,46.40
2018-04-08T16:19:29.718Z,46.60
2018-04-08T16:21:58.159Z,46.90
2018-04-08T16:24:27.459Z,47.30
2018-04-08T16:26:55.239Z,47.20
2018-04-08T16:29:22.804Z,47.50
2018-04-08T16:31:50.410Z,47.90
2018-04-08T16:34:17.955Z,48.30
2018-04-08T16:36:45.574Z,48.60
2018-04-08T16:39:13.189Z,49.20
2018-04-08T16:41:40.738Z,49.30
2018-04-08T16:44:09.069Z,49.70
2018-04-08T16:46:36.670Z,49.70
2018-04-08T16:49:04.211Z,49.90
2018-04-08T16:51:31.782Z,50.10
2018-04-08T16:53:59.382Z,50.20
2018-04-08T16:56:27.738Z,50.60
2018-04-08T16:58:55.274Z,51.20
2018-04-08T17:01:23.623Z,51.00
2018-04-08T17:03:51.165Z,51.00
2018-04-08T17:06:18.703Z,51.20
2018-04-08T17:08:47.061Z,51.70
2018-04-08T17:11:14.581Z,51.50
2018-04-08T17:13:42.211Z,52.10
2018-04-08T17:16:09.766Z,52.20
2018-04-08T17:18:37.306Z,52.50
2018-04-08T17:21:04.846Z,52.70
2018-04-08T17:23:33.214Z,53.80
2018-04-08T17:26:00.866Z,53.00
2018-04-08T17:28:28.430Z,53.20
2018-04-08T17:30:56.938Z,53.20
2018-04-08T17:33:24.504Z,53.50
2018-04-08T17:35:52.156Z,53.70
2018-04-08T17:38:19.742Z,53.90
2018-04-08T17:40:47.306Z,54.00
2018-04-08T17:43:14.846Z,54.10
2018-04-08T17:45:42.443Z,54.20
2018-04-08T17:48:09.986Z,54.60
2018-04-08T17:50:38.306Z,55.00
2018-04-08T17:53:05.897Z,55.00
2018-04-08T17:55:33.458Z,55.00
2018-04-08T17:58:00.993Z,55.20
2018-04-08T18:00:28.582Z,55.30
2018-04-08T18:02:57.061Z,55.50
2018-04-08T18:05:25.363Z,55.60
2018-04-08T18:07:52.939Z,55.60
2018-04-08T18:10:20.522Z,55.70
2018-04-08T18:12:48.092Z,55.70
2018-04-08T18:15:15.675Z,55.80
2018-04-08T18:17:43.225Z,55.70
2018-04-08T18:20:10.830Z,55.50
2018-04-08T18:22:38.406Z,55.00
2018-04-08T18:25:05.954Z,54.70
2018-04-08T18:27:33.493Z,54.40
2018-04-08T18:30:01.878Z,54.10
2018-04-08T18:32:30.179Z,54.20
2018-04-08T18:34:57.721Z,54.20
2018-04-08T18:37:25.326Z,54.30
2018-04-08T18:39:52.884Z,54.50
2018-04-08T18:42:21.187Z,55.00
2018-04-08T18:44:49.597Z,55.20
2018-04-08T18:47:17.131Z,55.10
2018-04-08T18:49:45.431Z,55.60
2018-04-08T18:52:13.001Z,55.50
2018-04-08T18:54:40.526Z,55.90
2018-04-08T18:57:08.107Z,55.80
2018-04-08T18:59:35.687Z,56.00
2018-04-08T19:02:03.214Z,56.20
2018-04-08T19:04:30.753Z,56.50
2018-04-08T19:06:58.346Z,57.40
2018-04-08T19:09:25.882Z,57.00
2018-04-08T19:11:54.196Z,57.60
2018-04-08T19:14:21.773Z,57.60
2018-04-08T19:16:49.341Z,57.60
2018-04-08T19:19:16.881Z,57.80
2018-04-08T19:21:45.240Z,58.30
2018-04-08T19:24:12.774Z,58.30
2018-04-08T19:26:40.326Z,58.50
2018-04-08T19:29:07.935Z,58.80
2018-04-08T19:31:35.470Z,59.00
2018-04-08T19:34:03.155Z,59.70
2018-04-08T19:36:30.746Z,59.70
2018-04-08T19:38:58.285Z,59.90
2018-04-08T19:41:27.514Z,60.10
2018-04-08T19:43:55.089Z,60.10
2018-04-08T19:46:22.632Z,60.40
2018-04-08T19:48:50.926Z,60.90
2018-04-08T19:51:19.278Z,61.00
2018-04-08T19:53:47.010Z,60.90
2018-04-08T19:56:14.559Z,61.30
2018-04-08T19:58:43.002Z,61.70
2018-04-08T20:01:10.545Z,61.60
2018-04-08T20:03:38.082Z,61.90
2018-04-08T20:06:05.683Z,62.10
2018-04-08T20:08:33.222Z,62.40
2018-04-08T20:11:01.559Z,62.90
2018-04-08T20:13:29.219Z,62.90
2018-04-08T20:15:58.450Z,63.50
2018-04-08T20:18:25.986Z,63.50
2018-04-08T20:20:54.350Z,64.20
2018-04-08T20:23:21.890Z,64.20
2018-04-08T20:25:49.420Z,64.30
2018-04-08T20:28:17.090Z,64.50
2018-04-08T20:30:45.387Z,64.90
2018-04-08T20:33:12.922Z,64.80
2018-04-08T20:35:40.494Z,65.20
2018-04-08T20:38:08.033Z,65.60
2018-04-08T20:40:35.562Z,65.90
2018-04-08T20:43:04.014Z,66.40
2018-04-08T20:45:31.554Z,66.40
2018-04-08T20:47:59.091Z,66.40
2018-04-08T20:50:28.391Z,66.90
2018-04-08T20:52:56.735Z,67.80
2018-04-08T20:55:24.274Z,67.00
2018-04-08T20:57:51.875Z,67.30
2018-04-08T21:00:19.428Z,67.30
2018-04-08T21:02:46.966Z,67.60
2018-04-08T21:05:15.318Z,67.90
2018-04-08T21:07:42.876Z,67.80
2018-04-08T21:10:10.406Z,68.00
2018-04-08T21:12:38.754Z,68.20
2018-04-08T21:15:06.303Z,68.10
2018-04-08T21:17:33.854Z,68.20
2018-04-08T21:20:01.443Z,68.40
2018-04-08T21:22:28.973Z,68.60
2018-04-08T21:24:58.206Z,68.80
2018-04-08T21:27:25.794Z,68.80
2018-04-08T21:29:53.322Z,68.90
2018-04-08T21:32:21.622Z,69.90
2018-04-08T21:34:49.962Z,69.30
2018-04-08T21:37:17.502Z,69.20
2018-04-08T21:39:45.041Z,69.50
2018-04-08T21:42:12.633Z,69.50
2018-04-08T21:44:40.184Z,69.80
2018-04-08T21:47:07.723Z,69.70
2018-04-08T21:49:35.312Z,69.70
2018-04-08T21:52:02.849Z,69.70
2018-04-08T21:54:30.387Z,69.60
2018-04-08T21:56:58.207Z,69.80
2018-04-08T21:59:25.757Z,69.70
2018-04-08T22:01:53.315Z,69.90
2018-04-08T22:04:20.902Z,70.00
2018-04-08T22:06:48.430Z,70.20
2018-04-08T22:09:15.965Z,70.40
2018-04-08T22:11:43.572Z,70.10
2018-04-08T22:14:11.194Z,70.50
2018-04-08T22:16:38.753Z,71.00
2018-04-08T22:19:06.431Z,70.70
2018-04-08T22:21:34.007Z,71.70
2018-04-08T22:24:01.537Z,71.90
2018-04-08T22:26:29.900Z,71.50
2018-04-08T22:28:58.358Z,71.40
2018-04-08T22:31:25.888Z,71.60
2018-04-08T22:33:53.467Z,71.70
2018-04-08T22:36:21.766Z,72.20
2018-04-08T22:38:50.078Z,72.60
2018-04-08T22:41:17.659Z,72.50
2018-04-08T22:43:45.200Z,72.80
2018-04-08T22:46:12.734Z,73.00
2018-04-08T22:48:40.587Z,73.30
2018-04-08T22:51:08.123Z,73.60
2018-04-08T22:53:35.686Z,73.90
2018-04-08T22:56:04.033Z,74.20
2018-04-08T22:58:31.570Z,74.20
2018-04-08T23:00:59.102Z,74.50
2018-04-08T23:03:28.379Z,75.60
2018-04-08T23:05:55.910Z,75.00
2018-04-08T23:08:23.497Z,75.20
2018-04-08T23:10:51.084Z,75.40
2018-04-08T23:13:18.638Z,75.70
2018-04-08T23:15:46.733Z,75.80
2018-04-08T23:18:14.305Z,76.10
2018-04-08T23:20:41.850Z,76.40
2018-04-08T23:23:09.381Z,76.60
2018-04-08T23:25:37.022Z,76.40
2018-04-08T23:28:04.554Z,76.50
2018-04-08T23:30:32.099Z,76.80
2018-04-08T23:32:59.697Z,76.80
2018-04-08T23:35:28.919Z,77.40
2018-04-08T23:37:56.459Z,77.40
2018-04-08T23:40:24.802Z,77.80
2018-04-08T23:42:52.339Z,77.70
2018-04-08T23:45:20.634Z,78.20
2018-04-08T23:47:48.218Z,78.20
2018-04-08T23:50:15.779Z,78.40
2018-04-08T23:52:43.310Z,78.50
2018-04-08T23:55:10.994Z,78.90
2018-04-08T23:57:38.525Z,79.20
